Time,TemperatureF,DewpointF,PressureIn,WindDirection,WindDirectionDegrees,WindSpeedMPH,WindSpeedGustMPH,Humidity,HourlyPrecipIn,Conditions,Clouds,dailyrainin,SolarRadiationWatts/m^2,SoftwareType,DateUTC
2013-02-14 00:21:00,38.0,21.0,-100.00,WNW,288,5.0,8.0,49,0.00,,,0.00,0.000000,,2013-02-14 08:21:00,
2013-02-14 00:31:00,38.0,21.0,-100.00,WNW,288,5.0,8.0,49,0.00,,,0.00,0.000000,,2013-02-14 08:31:00,
2013-02-14 00:43:00,38.0,21.0,-100.00,WNW,288,5.0,8.0,49,0.00,,,0.00,0.000000,,2013-02-14 08:43:00,
2013-02-14 00:52:00,38.0,21.0,-100.00,WNW,288,5.0,8.0,49,0.00,,,0.00,0.000000,,2013-02-14 08:52:00,
2013-02-14 01:21:00,41.0,20.0,-100.00,West,279,5.0,12.0,43,0.00,,,0.00,0.000000,,2013-02-14 09:21:00,
2013-02-14 01:31:00,41.0,20.0,-100.00,West,279,5.0,12.0,43,0.00,,,0.00,0.000000,,2013-02-14 09:31:00,
2013-02-14 01:41:00,41.0,20.0,-100.00,West,279,5.0,12.0,43,0.00,,,0.00,0.000000,,2013-02-14 09:41:00,
2013-02-14 01:51:00,41.0,20.0,-100.00,West,279,5.0,12.0,43,0.00,,,0.00,0.000000,,2013-02-14 09:51:00,
2013-02-14 02:21:00,41.0,16.0,-100.00,WNW,296,3.0,17.0,36,0.00,,,-99.99,0.000000,,2013-02-14 10:21:00,
2013-02-14 02:31:00,41.0,16.0,-100.00,WNW,296,3.0,17.0,36,0.00,,,-99.99,0.000000,,2013-02-14 10:31:00,
2013-02-14 02:41:00,41.0,16.0,-100.00,WNW,296,3.0,17.0,36,0.00,,,-99.99,0.000000,,2013-02-14 10:41:00,
2013-02-14 02:52:00,41.0,16.0,-100.00,WNW,296,3.0,17.0,36,0.00,,,-99.99,0.000000,,2013-02-14 10:52:00,
2013-02-14 03:21:00,41.0,15.0,-100.00,NW,307,4.0,15.0,35,0.00,,,0.00,0.000000,,2013-02-14 11:21:00,
2013-02-14 03:42:00,41.0,15.0,-100.00,NW,307,4.0,15.0,35,0.00,,,0.00,0.000000,,2013-02-14 11:42:00,
2013-02-14 03:52:00,41.0,15.0,-100.00,NW,307,4.0,15.0,35,0.00,,,0.00,0.000000,,2013-02-14 11:52:00,
2013-02-14 04:22:00,42.0,15.0,-100.00,NNW,338,4.0,10.0,33,0.00,,,0.00,0.000000,,2013-02-14 12:22:00,
2013-02-14 04:32:00,42.0,15.0,-100.00,NNW,338,4.0,10.0,33,0.00,,,0.00,0.000000,,2013-02-14 12:32:00,
2013-02-14 04:42:00,42.0,15.0,-100.00,NNW,338,4.0,10.0,33,0.00,,,0.00,0.000000,,2013-02-14 12:42:00,
2013-02-14 04:53:00,42.0,15.0,-100.00,NNW,338,4.0,10.0,33,0.00,,,0.00,0.000000,,2013-02-14 12:53:00,
2013-02-14 05:21:00,40.0,15.0,-100.00,WNW,287,3.0,11.0,36,0.00,,,0.00,0.000000,,2013-02-14 13:21:00,
2013-02-14 05:31:00,40.0,15.0,-100.00,WNW,287,3.0,11.0,36,0.00,,,0.00,0.000000,,2013-02-14 13:31:00,
2013-02-14 05:41:00,40.0,15.0,-100.00,WNW,287,3.0,11.0,36,0.00,,,0.00,0.000000,,2013-02-14 13:41:00,
2013-02-14 05:51:00,40.0,15.0,-100.00,WNW,287,3.0,11.0,36,0.00,,,0.00,0.000000,,2013-02-14 13:51:00,
2013-02-14 06:21:00,40.0,15.0,-100.00,NW,310,3.0,9.0,35,0.00,,,0.00,0.000000,,2013-02-14 14:21:00,
2013-02-14 06:31:00,40.0,15.0,-100.00,NW,310,3.0,9.0,35,0.00,,,0.00,0.000000,,2013-02-14 14:31:00,
2013-02-14 06:41:00,40.0,15.0,-100.00,NW,310,3.0,9.0,35,0.00,,,0.00,0.000000,,2013-02-14 14:41:00,
2013-02-14 06:52:00,40.0,15.0,-100.00,NW,310,3.0,9.0,35,0.00,,,0.00,0.000000,,2013-02-14 14:52:00,
2013-02-14 07:21:00,38.0,13.0,-100.00,WNW,298,4.0,10.0,35,0.00,,,0.00,1.000000,,2013-02-14 15:21:00,
2013-02-14 07:31:00,38.0,13.0,-100.00,WNW,298,4.0,10.0,35,0.00,,,0.00,1.000000,,2013-02-14 15:31:00,
2013-02-14 07:41:00,38.0,13.0,-100.00,WNW,298,4.0,10.0,35,0.00,,,0.00,1.000000,,2013-02-14 15:41:00,
2013-02-14 07:51:00,38.0,13.0,-100.00,WNW,298,4.0,10.0,35,0.00,,,0.00,1.000000,,2013-02-14 15:51:00,
2013-02-14 08:21:00,48.0,15.0,-100.00,NNW,330,4.0,17.0,26,0.00,,,0.00,87.000000,,2013-02-14 16:21:00,
2013-02-14 08:31:00,48.0,15.0,-100.00,NNW,330,4.0,17.0,26,0.00,,,0.00,87.000000,,2013-02-14 16:31:00,
2013-02-14 08:41:00,48.0,15.0,-100.00,NNW,330,4.0,17.0,26,0.00,,,0.00,87.000000,,2013-02-14 16:41:00,
2013-02-14 08:51:00,48.0,15.0,-100.00,NNW,330,4.0,17.0,26,0.00,,,0.00,87.000000,,2013-02-14 16:51:00,
2013-02-14 09:21:00,53.0,18.0,-100.00,ENE,62,3.0,15.0,25,0.00,,,0.00,314.000000,,2013-02-14 17:21:00,
2013-02-14 09:31:00,53.0,18.0,-100.00,ENE,62,3.0,15.0,25,0.00,,,0.00,314.000000,,2013-02-14 17:31:00,
2013-02-14 10:22:00,57.0,15.0,-100.00,ENE,70,13.0,33.0,19,-99.99,,,0.00,522.000000,,2013-02-14 18:22:00,
2013-02-14 11:21:00,57.0,16.0,-100.00,ENE,59,14.0,36.0,20,0.00,,,0.00,679.000000,,2013-02-14 19:21:00,
2013-02-14 11:31:00,57.0,16.0,-100.00,ENE,59,14.0,36.0,20,0.00,,,0.00,679.000000,,2013-02-14 19:31:00,
2013-02-14 11:41:00,57.0,16.0,-100.00,ENE,59,14.0,36.0,20,0.00,,,0.00,679.000000,,2013-02-14 19:41:00,
2013-02-14 11:51:00,57.0,16.0,-100.00,ENE,59,14.0,36.0,20,0.00,,,0.00,679.000000,,2013-02-14 19:51:00,
2013-02-14 12:21:00,63.0,16.0,-100.00,ENE,71,7.0,34.0,16,0.00,,,0.00,772.000000,,2013-02-14 20:21:00,
2013-02-14 12:31:00,63.0,16.0,-100.00,ENE,71,7.0,34.0,16,0.00,,,0.00,772.000000,,2013-02-14 20:31:00,
2013-02-14 12:41:00,63.0,16.0,-100.00,ENE,71,7.0,34.0,16,0.00,,,0.00,772.000000,,2013-02-14 20:41:00,
2013-02-14 12:52:00,63.0,16.0,-100.00,ENE,71,7.0,34.0,16,0.00,,,0.00,772.000000,,2013-02-14 20:52:00,
2013-02-14 13:21:00,62.0,19.0,-100.00,SSE,168,5.0,21.0,19,0.00,,,0.00,795.000000,,2013-02-14 21:21:00,
2013-02-14 13:31:00,62.0,19.0,-100.00,SSE,168,5.0,21.0,19,0.00,,,0.00,795.000000,,2013-02-14 21:31:00,
2013-02-14 13:41:00,62.0,19.0,-100.00,SSE,168,5.0,21.0,19,0.00,,,0.00,795.000000,,2013-02-14 21:41:00,
2013-02-14 13:51:00,62.0,19.0,-100.00,SSE,168,5.0,21.0,19,0.00,,,0.00,795.000000,,2013-02-14 21:51:00,
2013-02-14 14:21:00,62.0,25.0,-100.00,South,170,5.0,15.0,24,0.00,,,0.00,742.000000,,2013-02-14 22:21:00,
2013-02-14 14:31:00,62.0,25.0,-100.00,South,170,5.0,15.0,24,0.00,,,0.00,742.000000,,2013-02-14 22:31:00,
2013-02-14 14:41:00,62.0,25.0,-100.00,South,170,5.0,15.0,24,0.00,,,0.00,742.000000,,2013-02-14 22:41:00,
2013-02-14 14:51:00,62.0,25.0,-100.00,South,170,5.0,15.0,24,0.00,,,0.00,742.000000,,2013-02-14 22:51:00,
2013-02-14 15:21:00,60.0,21.0,-100.00,SE,135,4.0,12.0,22,0.00,,,0.00,624.000000,,2013-02-14 23:21:00,
2013-02-14 15:31:00,60.0,21.0,-100.00,SE,135,4.0,12.0,22,0.00,,,0.00,624.000000,,2013-02-14 23:31:00,
2013-02-14 15:41:00,60.0,21.0,-100.00,SE,135,4.0,12.0,22,0.00,,,0.00,624.000000,,2013-02-14 23:41:00,
2013-02-14 15:52:00,60.0,21.0,-100.00,SE,135,4.0,12.0,22,0.00,,,0.00,624.000000,,2013-02-14 23:52:00,
2013-02-14 16:21:00,59.0,23.0,-100.00,SSE,152,3.0,8.0,25,0.00,,,0.00,421.000000,,2013-02-15 00:21:00,
2013-02-14 16:31:00,59.0,23.0,-100.00,SSE,152,3.0,8.0,25,0.00,,,0.00,421.000000,,2013-02-15 00:31:00,
2013-02-14 16:41:00,59.0,23.0,-100.00,SSE,152,3.0,8.0,25,0.00,,,0.00,421.000000,,2013-02-15 00:41:00,
2013-02-14 16:51:00,59.0,23.0,-100.00,SSE,152,3.0,8.0,25,0.00,,,0.00,421.000000,,2013-02-15 00:51:00,
2013-02-14 17:21:00,52.0,28.0,-100.00,ESE,116,3.0,8.0,40,0.00,,,0.00,121.000000,,2013-02-15 01:21:00,
2013-02-14 17:31:00,52.0,28.0,-100.00,ESE,116,3.0,8.0,40,0.00,,,0.00,121.000000,,2013-02-15 01:31:00,
2013-02-14 17:41:00,52.0,28.0,-100.00,ESE,116,3.0,8.0,40,0.00,,,0.00,121.000000,,2013-02-15 01:41:00,
2013-02-14 17:51:00,52.0,28.0,-100.00,ESE,116,3.0,8.0,40,0.00,,,0.00,121.000000,,2013-02-15 01:51:00,
2013-02-14 18:21:00,47.0,30.0,-100.00,NE,36,2.0,5.0,52,0.00,,,0.00,9.000000,,2013-02-15 02:21:00,
2013-02-14 18:31:00,47.0,30.0,-100.00,NE,36,2.0,5.0,52,0.00,,,0.00,9.000000,,2013-02-15 02:31:00,
2013-02-14 18:41:00,47.0,30.0,-100.00,NE,36,2.0,5.0,52,0.00,,,0.00,9.000000,,2013-02-15 02:41:00,
2013-02-14 18:52:00,47.0,30.0,-100.00,NE,36,2.0,5.0,52,0.00,,,0.00,9.000000,,2013-02-15 02:52:00,
2013-02-14 19:21:00,45.0,29.0,-100.00,WNW,299,2.0,5.0,54,0.00,,,0.00,0.000000,,2013-02-15 03:21:00,
2013-02-14 19:32:00,45.0,29.0,-100.00,WNW,299,2.0,5.0,54,0.00,,,0.00,0.000000,,2013-02-15 03:32:00,
2013-02-14 20:21:00,42.0,22.0,-100.00,NNW,343,2.0,10.0,45,-99.99,,,0.00,0.000000,,2013-02-15 04:21:00,
2013-02-14 20:31:00,42.0,22.0,-100.00,NNW,343,2.0,10.0,45,-99.99,,,0.00,0.000000,,2013-02-15 04:31:00,
2013-02-14 21:22:00,42.0,11.0,-100.00,WNW,296,5.0,14.0,28,0.00,,,0.00,0.000000,,2013-02-15 05:22:00,
2013-02-14 22:21:00,42.0,10.0,-100.00,WNW,283,4.0,10.0,26,-99.99,,,0.00,0.000000,,2013-02-15 06:21:00,
2013-02-14 23:21:00,44.0,7.0,-100.00,NW,308,4.0,9.0,21,0.00,,,0.00,0.000000,,2013-02-15 07:21:00,